Time,TemperatureF,DewpointF,PressureIn,WindDirection,WindDirectionDegrees,WindSpeedMPH,WindSpeedGustMPH,Humidity,HourlyPrecipIn,Conditions,Clouds,dailyrainin,SoftwareType,DateUTC
2013-04-18 06:50:00,57.2,56.1,30.14,ENE,61,0.0,0.0,96,0.00,,,0.00,Wunderground v.1.15,2013-04-18 10:50:00,
2013-04-18 06:55:00,57.2,56.1,30.14,ENE,61,0.0,0.0,96,0.00,,,0.00,Wunderground v.1.15,2013-04-18 10:55:00,
2013-04-18 07:00:00,57.1,56.0,30.14,ENE,60,0.0,0.0,96,0.00,,,0.00,Wunderground v.1.15,2013-04-18 11:00:00,
2013-04-18 07:10:00,57.1,56.0,30.14,ENE,60,0.0,0.0,96,0.00,,,0.00,Wunderground v.1.15,2013-04-18 11:10:00,
2013-04-18 07:15:00,57.1,56.0,30.14,ENE,60,0.0,0.0,96,0.00,,,0.00,Wunderground v.1.15,2013-04-18 11:15:00,
2013-04-18 07:20:00,57.2,56.1,30.15,ENE,60,0.0,0.0,96,0.00,,,0.00,Wunderground v.1.15,2013-04-18 11:20:00,
2013-04-18 07:25:00,57.2,56.1,30.15,ENE,61,0.0,0.0,96,0.00,,,0.00,Wunderground v.1.15,2013-04-18 11:25:00,
2013-04-18 07:30:00,57.2,56.1,30.15,ENE,60,0.0,0.0,96,0.00,,,0.00,Wunderground v.1.15,2013-04-18 11:30:00,
2013-04-18 07:35:00,57.2,56.1,30.15,ENE,61,0.0,0.0,96,0.00,,,0.00,Wunderground v.1.15,2013-04-18 11:35:00,
2013-04-18 07:40:00,57.2,56.1,30.15,ENE,61,0.0,0.0,96,0.00,,,0.00,Wunderground v.1.15,2013-04-18 11:40:00,
2013-04-18 07:45:00,57.4,56.6,30.15,ENE,61,0.0,0.0,97,0.00,,,0.00,Wunderground v.1.15,2013-04-18 11:45:00,
2013-04-18 07:55:00,57.6,56.8,30.15,ENE,60,0.0,0.0,97,0.00,,,0.00,Wunderground v.1.15,2013-04-18 11:55:00,
2013-04-18 08:00:00,57.8,57.0,30.16,ENE,63,0.0,0.0,97,0.00,,,0.00,Wunderground v.1.15,2013-04-18 12:00:00,
2013-04-18 08:10:00,58.5,57.9,30.16,ENE,63,0.0,0.0,98,0.00,,,0.00,Wunderground v.1.15,2013-04-18 12:10:00,
2013-04-18 08:15:00,58.8,58.0,30.16,ENE,63,0.0,0.0,97,0.00,,,0.00,Wunderground v.1.15,2013-04-18 12:15:00,
2013-04-18 08:20:00,59.3,58.7,30.16,ENE,63,0.0,0.0,98,0.00,,,0.00,Wunderground v.1.15,2013-04-18 12:20:00,
2013-04-18 08:30:00,60.5,59.9,30.16,ENE,62,0.0,0.0,98,0.00,,,0.00,Wunderground v.1.15,2013-04-18 12:30:00,
2013-04-18 08:35:00,61.2,60.6,30.16,ENE,63,0.0,0.0,98,0.00,,,0.00,Wunderground v.1.15,2013-04-18 12:35:00,
2013-04-18 08:40:00,62.0,61.4,30.16,ENE,63,0.0,0.0,98,0.00,,,0.00,Wunderground v.1.15,2013-04-18 12:40:00,
2013-04-18 08:45:00,62.8,62.2,30.16,ENE,63,0.0,0.0,98,0.00,,,0.00,Wunderground v.1.15,2013-04-18 12:45:00,
2013-04-18 08:55:00,64.2,63.0,30.17,ENE,68,0.0,0.0,96,0.00,,,0.00,Wunderground v.1.15,2013-04-18 12:55:00,
2013-04-18 09:00:00,64.8,63.3,30.17,ENE,60,0.0,0.0,95,0.00,,,0.00,Wunderground v.1.15,2013-04-18 13:00:00,
2013-04-18 09:10:00,66.0,63.9,30.16,ESE,115,0.0,0.0,93,0.00,,,0.00,Wunderground v.1.15,2013-04-18 13:10:00,
2013-04-18 09:15:00,66.6,63.9,30.16,ESE,117,0.0,0.0,91,0.00,,,0.00,Wunderground v.1.15,2013-04-18 13:15:00,
2013-04-18 09:25:00,67.5,63.8,30.16,SE,138,0.0,0.0,88,0.00,,,0.00,Wunderground v.1.15,2013-04-18 13:25:00,
2013-04-18 09:30:00,67.7,64.0,30.17,SSE,155,0.0,0.0,88,0.00,,,0.00,Wunderground v.1.15,2013-04-18 13:30:00,
2013-04-18 09:35:00,67.9,63.9,30.17,SSE,155,0.0,0.0,87,0.00,,,0.00,Wunderground v.1.15,2013-04-18 13:35:00,
2013-04-18 09:40:00,68.1,64.1,30.17,SSE,155,0.0,0.0,87,0.00,,,0.00,Wunderground v.1.15,2013-04-18 13:40:00,
2013-04-18 09:50:00,68.4,63.7,30.17,SSE,155,0.0,0.0,85,0.00,,,0.00,Wunderground v.1.15,2013-04-18 13:50:00,
2013-04-18 09:55:00,68.7,64.0,30.17,SSE,152,0.0,0.0,85,0.00,,,0.00,Wunderground v.1.15,2013-04-18 13:55:00,
2013-04-18 10:00:00,68.9,64.2,30.17,WSW,253,0.0,0.0,85,0.00,,,0.00,Wunderground v.1.15,2013-04-18 14:00:00,
2013-04-18 10:10:00,69.2,64.2,30.17,WSW,252,0.0,0.0,84,0.00,,,0.00,Wunderground v.1.15,2013-04-18 14:10:00,
2013-04-18 10:15:00,69.4,64.0,30.17,WSW,252,0.0,0.0,83,0.00,,,0.00,Wunderground v.1.15,2013-04-18 14:15:00,
2013-04-18 10:25:00,69.6,63.9,30.16,SE,133,0.0,0.0,82,0.00,,,0.00,Wunderground v.1.15,2013-04-18 14:25:00,
2013-04-18 10:30:00,69.7,64.0,30.16,ENE,63,0.0,1.0,82,0.00,,,0.00,Wunderground v.1.15,2013-04-18 14:30:00,
2013-04-18 10:40:00,69.6,63.5,30.16,East,95,1.0,1.0,81,0.00,,,0.00,Wunderground v.1.15,2013-04-18 14:40:00,
2013-04-18 10:45:00,69.7,63.6,30.16,ESE,115,1.0,1.0,81,0.00,,,0.00,Wunderground v.1.15,2013-04-18 14:45:00,
2013-04-18 10:50:00,70.1,64.0,30.16,East,92,0.0,0.0,81,0.00,,,0.00,Wunderground v.1.15,2013-04-18 14:50:00,
2013-04-18 10:55:00,70.6,64.5,30.16,East,95,0.0,1.0,81,0.00,,,0.00,Wunderground v.1.15,2013-04-18 14:55:00,
2013-04-18 11:00:00,70.9,64.1,30.16,East,94,0.0,0.0,79,0.00,,,0.00,Wunderground v.1.15,2013-04-18 15:00:00,
2013-04-18 11:10:00,71.5,64.6,30.16,NW,319,0.0,2.0,79,0.00,,,0.00,Wunderground v.1.15,2013-04-18 15:10:00,
2013-04-18 11:15:00,72.0,64.4,30.16,East,100,0.0,2.0,77,0.00,,,0.00,Wunderground v.1.15,2013-04-18 15:15:00,
2013-04-18 11:25:00,72.6,63.8,30.15,WSW,249,1.0,1.0,74,0.00,,,0.00,Wunderground v.1.15,2013-04-18 15:25:00,
2013-04-18 11:30:00,73.3,64.1,30.16,SSE,156,1.0,1.0,73,0.00,,,0.00,Wunderground v.1.15,2013-04-18 15:30:00,
2013-04-18 11:40:00,73.5,61.9,30.15,South,174,1.0,1.0,67,0.00,,,0.00,Wunderground v.1.15,2013-04-18 15:40:00,
2013-04-18 11:45:00,73.9,63.5,30.15,SE,134,1.0,1.0,70,0.00,,,0.00,Wunderground v.1.15,2013-04-18 15:45:00,
2013-04-18 11:50:00,73.9,62.7,30.15,WNW,295,0.0,0.0,68,0.00,,,0.00,Wunderground v.1.15,2013-04-18 15:50:00,
2013-04-18 12:00:00,74.2,63.0,30.15,SE,127,1.0,1.0,68,0.00,,,0.00,Wunderground v.1.15,2013-04-18 16:00:00,
2013-04-18 12:05:00,74.3,62.2,30.15,East,80,1.0,1.0,66,0.00,,,0.00,Wunderground v.1.15,2013-04-18 16:05:00,
2013-04-18 12:10:00,74.4,62.7,30.15,SE,135,1.0,1.0,67,0.00,,,0.00,Wunderground v.1.15,2013-04-18 16:10:00,
2013-04-18 12:15:00,74.6,62.5,30.14,SSE,156,1.0,1.0,66,0.00,,,0.00,Wunderground v.1.15,2013-04-18 16:15:00,
2013-04-18 12:25:00,74.9,62.3,30.14,SE,133,0.0,1.0,65,0.00,,,0.00,Wunderground v.1.15,2013-04-18 16:25:00,
2013-04-18 12:30:00,75.7,63.1,30.14,ENE,63,0.0,1.0,65,0.00,,,0.00,Wunderground v.1.15,2013-04-18 16:30:00,
2013-04-18 12:40:00,75.5,62.9,30.13,WNW,290,0.0,0.0,65,0.00,,,0.00,Wunderground v.1.15,2013-04-18 16:40:00,
2013-04-18 12:45:00,75.7,62.2,30.13,SSE,152,0.0,0.0,63,0.00,,,0.00,Wunderground v.1.15,2013-04-18 16:45:00,
2013-04-18 12:55:00,76.1,61.7,30.13,SE,143,1.0,2.0,61,0.00,,,0.00,Wunderground v.1.15,2013-04-18 16:55:00,
2013-04-18 13:00:00,76.3,60.9,30.12,SSE,150,1.0,2.0,59,0.00,,,0.00,Wunderground v.1.15,2013-04-18 17:00:00,
2013-04-18 13:10:00,76.7,60.8,30.12,SSE,164,1.0,1.0,58,0.00,,,0.00,Wunderground v.1.15,2013-04-18 17:10:00,
2013-04-18 13:15:00,76.8,61.4,30.12,ESE,115,1.0,1.0,59,0.00,,,0.00,Wunderground v.1.15,2013-04-18 17:15:00,
2013-04-18 13:20:00,76.5,61.6,30.11,ESE,114,0.0,0.0,60,0.00,,,0.00,Wunderground v.1.15,2013-04-18 17:20:00,
2013-04-18 13:25:00,76.9,62.0,30.11,SE,140,0.0,0.0,60,0.00,,,0.00,Wunderground v.1.15,2013-04-18 17:25:00,
2013-04-18 13:35:00,77.4,61.0,30.10,ENE,78,0.0,0.0,57,0.00,,,0.00,Wunderground v.1.15,2013-04-18 17:35:00,
2013-04-18 13:40:00,77.5,61.1,30.10,East,84,1.0,1.0,57,0.00,,,0.00,Wunderground v.1.15,2013-04-18 17:40:00,
2013-04-18 13:50:00,77.7,61.3,30.10,NE,54,1.0,1.0,57,0.00,,,0.00,Wunderground v.1.15,2013-04-18 17:50:00,
2013-04-18 13:55:00,78.0,61.0,30.10,ESE,108,1.0,1.0,56,0.00,,,0.00,Wunderground v.1.15,2013-04-18 17:55:00,
2013-04-18 14:00:00,78.1,61.6,30.10,East,87,1.0,1.0,57,0.00,,,0.00,Wunderground v.1.15,2013-04-18 18:00:00,
2013-04-18 14:10:00,79.1,62.1,30.10,SE,127,1.0,1.0,56,0.00,,,0.00,Wunderground v.1.15,2013-04-18 18:10:00,
2013-04-18 14:15:00,79.3,62.2,30.09,East,94,1.0,1.0,56,0.00,,,0.00,Wunderground v.1.15,2013-04-18 18:15:00,
2013-04-18 14:25:00,79.1,61.0,30.09,SSE,161,1.0,2.0,54,0.00,,,0.00,Wunderground v.1.15,2013-04-18 18:25:00,
2013-04-18 14:35:00,78.6,61.6,30.09,ENE,61,1.0,1.0,56,0.00,,,0.00,Wunderground v.1.15,2013-04-18 18:35:00,
2013-04-18 14:40:00,79.5,62.9,30.08,East,79,1.0,1.0,57,0.00,,,0.00,Wunderground v.1.15,2013-04-18 18:40:00,
2013-04-18 14:45:00,80.3,62.7,30.08,ESE,105,1.0,1.0,55,0.00,,,0.00,Wunderground v.1.15,2013-04-18 18:45:00,
2013-04-18 14:55:00,79.4,62.3,30.08,ENE,63,1.0,2.0,56,0.00,,,0.00,Wunderground v.1.15,2013-04-18 18:55:00,
2013-04-18 15:00:00,79.4,62.8,30.07,South,170,1.0,1.0,57,0.00,,,0.00,Wunderground v.1.15,2013-04-18 19:00:00,
2013-04-18 15:10:00,79.7,64.1,30.07,NNW,345,1.0,2.0,59,0.00,,,0.00,Wunderground v.1.15,2013-04-18 19:10:00,
2013-04-18 15:15:00,80.0,62.4,30.07,South,177,1.0,2.0,55,0.00,,,0.00,Wunderground v.1.15,2013-04-18 19:15:00,
2013-04-18 15:25:00,80.3,62.7,30.07,SSW,204,1.0,1.0,55,0.00,,,0.00,Wunderground v.1.15,2013-04-18 19:25:00,
2013-04-18 15:30:00,80.9,63.2,30.07,ENE,77,1.0,1.0,55,0.00,,,0.00,Wunderground v.1.15,2013-04-18 19:30:00,
2013-04-18 15:40:00,79.9,62.8,30.06,ESE,108,1.0,1.0,56,0.00,,,0.00,Wunderground v.1.15,2013-04-18 19:40:00,
2013-04-18 15:45:00,79.6,63.0,30.06,South,172,0.0,1.0,57,0.00,,,0.00,Wunderground v.1.15,2013-04-18 19:45:00,
2013-04-18 15:50:00,79.7,62.6,30.06,SE,145,0.0,1.0,56,0.00,,,0.00,Wunderground v.1.15,2013-04-18 19:50:00,
2013-04-18 15:55:00,79.2,61.6,30.06,ENE,61,1.0,1.0,55,0.00,,,0.00,Wunderground v.1.15,2013-04-18 19:55:00,
2013-04-18 16:00:00,79.4,62.3,30.05,SSE,147,1.0,1.0,56,0.00,,,0.00,Wunderground v.1.15,2013-04-18 20:00:00,
2013-04-18 16:10:00,80.2,62.6,30.05,SE,146,1.0,1.0,55,0.00,,,0.00,Wunderground v.1.15,2013-04-18 20:10:00,
2013-04-18 16:15:00,80.5,62.3,30.04,ENE,61,1.0,1.0,54,0.00,,,0.00,Wunderground v.1.15,2013-04-18 20:15:00,
2013-04-18 16:25:00,80.2,61.5,30.04,ENE,72,1.0,2.0,53,0.00,,,0.00,Wunderground v.1.15,2013-04-18 20:25:00,
2013-04-18 16:30:00,79.9,62.3,30.04,ENE,74,1.0,1.0,55,0.00,,,0.00,Wunderground v.1.15,2013-04-18 20:30:00,
2013-04-18 16:40:00,78.8,62.8,30.03,ENE,75,1.0,1.0,58,0.00,,,0.00,Wunderground v.1.15,2013-04-18 20:40:00,
2013-04-18 16:45:00,79.1,63.1,30.03,SE,140,1.0,1.0,58,0.00,,,0.00,Wunderground v.1.15,2013-04-18 20:45:00,
2013-04-18 16:55:00,80.1,63.5,30.03,ESE,117,1.0,1.0,57,0.00,,,0.00,Wunderground v.1.15,2013-04-18 20:55:00,
2013-04-18 17:00:00,79.4,62.3,30.03,East,96,1.0,1.0,56,0.00,,,0.00,Wunderground v.1.15,2013-04-18 21:00:00,
2013-04-18 17:05:00,78.9,62.4,30.03,SSE,165,1.0,1.0,57,0.00,,,0.00,Wunderground v.1.15,2013-04-18 21:05:00,
2013-04-18 17:15:00,78.3,62.8,30.03,ESE,102,0.0,1.0,59,0.00,,,0.00,Wunderground v.1.15,2013-04-18 21:15:00,
2013-04-18 17:20:00,78.1,62.6,30.03,East,101,0.0,0.0,59,0.00,,,0.00,Wunderground v.1.15,2013-04-18 21:20:00,
2013-04-18 17:25:00,77.8,62.3,30.03,ENE,77,0.0,1.0,59,0.00,,,0.00,Wunderground v.1.15,2013-04-18 21:25:00,
2013-04-18 17:35:00,78.3,62.3,30.02,ENE,72,0.0,1.0,58,0.00,,,0.00,Wunderground v.1.15,2013-04-18 21:35:00,
2013-04-18 17:40:00,78.7,62.2,30.02,ENE,74,1.0,1.0,57,0.00,,,0.00,Wunderground v.1.15,2013-04-18 21:40:00,
2013-04-18 17:45:00,78.8,62.3,30.02,ENE,60,1.0,1.0,57,0.00,,,0.00,Wunderground v.1.15,2013-04-18 21:45:00,
2013-04-18 17:55:00,78.0,62.5,30.02,ESE,105,1.0,1.0,59,0.00,,,0.00,Wunderground v.1.15,2013-04-18 21:55:00,
2013-04-18 18:00:00,77.6,63.1,30.02,ESE,106,0.0,0.0,61,0.00,,,0.00,Wunderground v.1.15,2013-04-18 22:00:00,
2013-04-18 18:10:00,76.9,62.9,30.02,ESE,107,0.0,0.0,62,0.00,,,0.00,Wunderground v.1.15,2013-04-18 22:10:00,
2013-04-18 18:15:00,76.7,63.2,30.02,ESE,107,0.0,0.0,63,0.00,,,0.00,Wunderground v.1.15,2013-04-18 22:15:00,
2013-04-18 18:25:00,76.8,62.8,30.01,ENE,76,0.0,0.0,62,0.00,,,0.00,Wunderground v.1.15,2013-04-18 22:25:00,
2013-04-18 18:30:00,77.0,63.4,30.01,ESE,105,0.0,1.0,63,0.00,,,0.00,Wunderground v.1.15,2013-04-18 22:30:00,
2013-04-18 21:10:00,67.6,61.2,30.02,ESE,117,0.0,0.0,80,0.00,,,0.00,Wunderground v.1.15,2013-04-19 01:10:00,
2013-04-18 21:15:00,67.6,61.2,30.02,ESE,117,0.0,0.0,80,0.00,,,0.00,Wunderground v.1.15,2013-04-19 01:15:00,
2013-04-18 21:25:00,67.4,61.4,30.02,ESE,117,0.0,0.0,81,0.00,,,0.00,Wunderground v.1.15,2013-04-19 01:25:00,
2013-04-18 21:30:00,67.3,61.6,30.02,SE,124,0.0,0.0,82,0.00,,,0.00,Wunderground v.1.15,2013-04-19 01:30:00,
2013-04-18 21:40:00,67.2,61.5,30.03,SE,124,0.0,0.0,82,0.00,,,0.00,Wunderground v.1.15,2013-04-19 01:40:00,
2013-04-18 21:45:00,67.2,61.9,30.03,SE,145,0.0,0.0,83,0.00,,,0.00,Wunderground v.1.15,2013-04-19 01:45:00,
2013-04-18 21:50:00,67.3,62.0,30.03,SE,146,0.0,0.0,83,0.00,,,0.00,Wunderground v.1.15,2013-04-19 01:50:00,
2013-04-18 21:55:00,67.2,61.9,30.03,SE,145,0.0,0.0,83,0.00,,,0.00,Wunderground v.1.15,2013-04-19 01:55:00,
2013-04-18 22:05:00,67.3,62.0,30.03,SE,146,0.0,0.0,83,0.00,,,0.00,Wunderground v.1.15,2013-04-19 02:05:00,
2013-04-18 22:10:00,67.2,62.2,30.03,SE,145,0.0,0.0,84,0.00,,,0.00,Wunderground v.1.15,2013-04-19 02:10:00,
2013-04-18 22:20:00,67.3,62.3,30.03,SE,146,0.0,0.0,84,0.00,,,0.00,Wunderground v.1.15,2013-04-19 02:20:00,
2013-04-18 22:25:00,67.4,62.4,30.02,East,93,0.0,0.0,84,0.00,,,0.00,Wunderground v.1.15,2013-04-19 02:25:00,
2013-04-18 22:35:00,67.4,62.4,30.03,ESE,115,0.0,0.0,84,0.00,,,0.00,Wunderground v.1.15,2013-04-19 02:35:00,
2013-04-18 22:40:00,67.3,62.3,30.03,ESE,117,0.0,0.0,84,0.00,,,0.00,Wunderground v.1.15,2013-04-19 02:40:00,
2013-04-18 22:45:00,67.2,62.2,30.03,ESE,115,0.0,0.0,84,0.00,,,0.00,Wunderground v.1.15,2013-04-19 02:45:00,
2013-04-18 22:55:00,67.3,62.6,30.02,ESE,108,0.0,0.0,85,0.00,,,0.00,Wunderground v.1.15,2013-04-19 02:55:00,
2013-04-18 23:00:00,67.3,62.6,30.02,NNE,32,0.0,0.0,85,0.00,,,0.00,Wunderground v.1.15,2013-04-19 03:00:00,
2013-04-18 23:10:00,67.5,62.5,30.02,SE,128,0.0,0.0,84,0.00,,,0.00,Wunderground v.1.15,2013-04-19 03:10:00,
2013-04-18 23:15:00,67.5,62.8,30.02,SE,124,0.0,0.0,85,0.00,,,0.00,Wunderground v.1.15,2013-04-19 03:15:00,
2013-04-18 23:25:00,67.4,62.7,30.02,SE,124,0.0,0.0,85,0.00,,,0.00,Wunderground v.1.15,2013-04-19 03:25:00,
2013-04-18 23:30:00,67.4,62.7,30.02,ESE,123,0.0,0.0,85,0.00,,,0.00,Wunderground v.1.15,2013-04-19 03:30:00,
2013-04-18 23:35:00,67.4,62.7,30.02,SE,124,0.0,0.0,85,0.00,,,0.00,Wunderground v.1.15,2013-04-19 03:35:00,
2013-04-18 23:45:00,67.4,62.7,30.02,SE,124,0.0,0.0,85,0.00,,,0.00,Wunderground v.1.15,2013-04-19 03:45:00,
2013-04-18 23:50:00,67.4,62.7,30.02,SE,124,0.0,0.0,85,0.00,,,0.00,Wunderground v.1.15,2013-04-19 03:50:00,
2013-04-18 23:55:00,67.4,62.7,30.02,ENE,70,0.0,0.0,85,0.00,,,0.00,Wunderground v.1.15,2013-04-19 03:55:00,